Time;durP1;ratioP1;P1;durP2;ratioP2;P2;SDS_P1;SDS_P2;PMS_P1;PMS_P2;Temp;Humidity;BMP_temperature;BMP_pressure;BME280_temperature;BME280_humidity;BME280_pressure;Samples;Min_cycle;Max_cycle;Signal;HPM_P1;HPM_P2
2023/09/20 00:00:51;;;;;;;;;;;;;;;25.17;38.23;100894.47;5079273;28;1256;-36
2023/09/20 00:03:19;;;;;;;;;;;;;;;23.74;47.64;100892.09;5079366;28;1961;-33
2023/09/20 00:05:47;;;;;;;;;;;;;;;25.39;41.27;100895.63;5079196;28;1098;-34
2023/09/20 00:08:13;;;;;;;;;;;;;;;25.86;40.92;100890.59;5078605;28;1053;-36
2023/09/20 00:10:39;;;;;;;;;;;;;;;26.57;39.04;100885.53;5078041;28;1015;-35
2023/09/20 00:13:04;;;;;;;;;;;;;;;24.14;43.03;100887.16;5072276;28;1015;-35
2023/09/20 00:15:30;;;;;;;;;;;;;;;23.98;46.07;100893.28;5059196;28;1023;-30
2023/09/20 00:17:56;;;;;;;;;;;;;;;25.64;40.09;100894.84;5078785;28;1047;-36
2023/09/20 00:20:21;;;;;;;;;;;;;;;26.07;39.74;100894.59;5078521;28;1166;-35
2023/09/20 00:22:47;;;;;;;;;;;;;;;25.92;41.17;100898.00;5064799;28;1905;-34
2023/09/20 00:25:13;;;;;;;;;;;;;;;23.83;43.42;100893.84;5079002;28;1106;-32
2023/09/20 00:27:39;;;;;;;;;;;;;;;24.37;44.46;100894.72;5071872;28;2353;-30
2023/09/20 00:30:10;;;;;;;;;;;;;;;25.49;42.99;100900.84;5060030;28;1070;-33
2023/09/20 00:32:37;;;;;;;;;;;;;;;26.22;38.94;100899.28;5058844;28;980;-34
2023/09/20 00:35:03;;;;;;;;;;;;;;;25.92;40.62;100898.00;5053712;28;2024;-29
2023/09/20 00:37:30;;;;;;;;;;;;;;;23.50;43.61;100892.75;5078521;28;1000;-36
2023/09/20 00:39:55;;;;;;;;;;;;;;;24.37;43.16;100888.47;5078336;28;1107;-32
2023/09/20 00:42:21;;;;;;;;;;;;;;;25.14;43.04;100889.41;5078471;28;1971;-34
2023/09/20 00:44:46;;;;;;;;;;;;;;;26.15;38.85;100896.44;5046268;28;1153;-32
2023/09/20 00:47:14;;;;;;;;;;;;;;;26.02;39.73;100887.03;5078472;28;1095;-31
2023/09/20 00:49:40;;;;;;;;;;;;;;;26.92;36.58;100891.41;5059736;28;1065;-35
2023/09/20 00:52:06;;;;;;;;;;;;;;;24.18;42.21;100890.38;5070551;28;1010;-32
2023/09/20 00:54:33;;;;;;;;;;;;;;;23.48;46.70;100892.91;5041166;28;1279;-33
2023/09/20 00:56:58;;;;;;;;;;;;;;;25.09;41.02;100892.56;5070578;28;1804;-31
2023/09/20 00:59:24;;;;;;;;;;;;;;;25.64;40.38;100892.97;5062432;28;996;-32
2023/09/20 01:01:50;;;;;;;;;;;;;;;26.16;40.35;100898.94;5060100;28;1914;-28
2023/09/20 01:04:16;;;;;;;;;;;;;;;26.54;38.37;100892.13;5077770;28;1003;-31
2023/09/20 01:06:41;;;;;;;;;;;;;;;25.88;40.11;100893.97;5077947;28;1023;-36
2023/09/20 01:09:09;;;;;;;;;;;;;;;23.45;43.49;100891.38;5077040;28;1107;-32
2023/09/20 01:11:34;;;;;;;;;;;;;;;24.36;43.03;100890.31;5077773;28;1130;-31
2023/09/20 01:14:00;;;;;;;;;;;;;;;25.15;42.92;100897.31;5059750;28;1570;-31
2023/09/20 01:16:27;;;;;;;;;;;;;;;26.12;38.23;100894.94;5059626;28;1130;-30
2023/09/20 01:18:52;;;;;;;;;;;;;;;26.10;39.82;100893.41;5059545;28;1147;-31
2023/09/20 01:21:19;;;;;;;;;;;;;;;26.74;37.21;100894.38;5077154;28;1035;-33
2023/09/20 01:23:44;;;;;;;;;;;;;;;24.06;43.21;100895.16;5076917;28;1917;-31
2023/09/20 01:26:13;;;;;;;;;;;;;;;23.59;48.31;100889.97;5046629;28;2472;-32
2023/09/20 01:28:38;;;;;;;;;;;;;;;25.40;41.65;100891.97;5058977;28;981;-32
2023/09/20 01:31:07;;;;;;;;;;;;;;;25.95;41.04;100898.66;5077314;28;1094;-32
2023/09/20 01:33:33;;;;;;;;;;;;;;;26.24;41.20;100894.56;5063976;28;1046;-31
2023/09/20 01:35:59;;;;;;;;;;;;;;;23.97;43.93;100896.97;5059403;28;1027;-33
2023/09/20 01:38:26;;;;;;;;;;;;;;;23.65;46.25;100891.22;5077365;28;1023;-31
2023/09/20 01:40:55;;;;;;;;;;;;;;;25.42;41.10;100889.91;5059156;28;1109;-30
2023/09/20 01:43:22;;;;;;;;;;;;;;;25.92;39.89;100891.78;5077504;28;1989;-33
2023/09/20 01:45:47;;;;;;;;;;;;;;;25.75;42.01;100885.56;5059036;28;1083;-30
2023/09/20 01:48:13;;;;;;;;;;;;;;;26.65;37.89;100883.63;5058785;28;1086;-31
2023/09/20 01:50:41;;;;;;;;;;;;;;;26.23;39.85;100882.94;5059259;28;1035;-30
2023/09/20 01:53:08;;;;;;;;;;;;;;;23.45;45.99;100877.97;5077388;28;1142;-30
2023/09/20 01:55:36;;;;;;;;;;;;;;;24.48;43.56;100879.25;5077309;28;1106;-33
2023/09/20 01:58:06;;;;;;;;;;;;;;;25.10;43.14;100879.97;5046291;28;2306;-29
2023/09/20 02:00:36;;;;;;;;;;;;;;;26.47;38.57;100881.19;5076267;28;1160;-30
2023/09/20 02:03:06;;;;;;;;;;;;;;;26.41;39.04;100877.31;5058739;28;1902;-33
2023/09/20 02:05:33;;;;;;;;;;;;;;;26.11;40.54;100878.94;5077032;28;1131;-32
2023/09/20 02:07:59;;;;;;;;;;;;;;;24.05;42.82;100862.09;5076883;28;1166;-35
2023/09/20 02:10:24;;;;;;;;;;;;;;;24.00;45.25;100875.16;5076885;28;988;-33
2023/09/20 02:12:53;;;;;;;;;;;;;;;25.46;40.79;100863.50;5076787;28;1056;-30
2023/09/20 02:15:19;;;;;;;;;;;;;;;25.93;39.86;100871.88;5059164;28;1421;-28
2023/09/20 02:17:45;;;;;;;;;;;;;;;25.79;40.95;100882.34;5076636;28;1178;-33
2023/09/20 02:20:11;;;;;;;;;;;;;;;23.90;43.03;100869.91;5076546;28;1111;-31
2023/09/20 02:22:37;;;;;;;;;;;;;;;24.39;43.58;100873.03;5061800;28;1988;-34
2023/09/20 02:25:05;;;;;;;;;;;;;;;25.28;42.82;100874.44;5076366;28;825;-33
2023/09/20 02:27:30;;;;;;;;;;;;;;;26.08;38.50;100869.31;5070663;28;1798;-33
2023/09/20 02:29:56;;;;;;;;;;;;;;;26.09;39.94;100872.88;5076250;28;991;-31
2023/09/20 02:32:23;;;;;;;;;;;;;;;26.93;37.18;100873.34;5076320;28;1122;-32
2023/09/20 02:34:49;;;;;;;;;;;;;;;24.05;43.03;100861.25;5076080;28;1062;-32
2023/09/20 02:37:15;;;;;;;;;;;;;;;23.51;46.74;100864.91;5075906;28;1074;-36
2023/09/20 02:39:40;;;;;;;;;;;;;;;25.28;41.46;100869.91;5058316;28;1499;-34
2023/09/20 02:42:07;;;;;;;;;;;;;;;25.61;40.83;100865.53;5057873;28;1976;-34
2023/09/20 02:44:32;;;;;;;;;;;;;;;26.15;39.98;100867.63;5057982;28;1332;-33
2023/09/20 02:46:59;;;;;;;;;;;;;;;23.94;43.51;100862.38;5076597;28;1023;-32
2023/09/20 02:49:24;;;;;;;;;;;;;;;23.65;46.14;100868.88;5058004;28;1178;-32
2023/09/20 02:51:51;;;;;;;;;;;;;;;25.46;40.89;100866.19;5057996;28;1110;-34
2023/09/20 02:54:17;;;;;;;;;;;;;;;25.92;39.95;100867.53;5076169;28;995;-32
2023/09/20 02:56:44;;;;;;;;;;;;;;;25.68;41.58;100867.41;5057069;28;2477;-34
2023/09/20 02:59:10;;;;;;;;;;;;;;;26.63;37.55;100861.38;5076106;28;1035;-32
2023/09/20 03:01:36;;;;;;;;;;;;;;;25.92;35.90;100871.03;5042492;28;1130;-31
2023/09/20 03:04:01;;;;;;;;;;;;;;;23.40;46.65;100866.00;5035555;28;1902;-33
2023/09/20 03:06:29;;;;;;;;;;;;;;;24.74;42.46;100868.44;5034288;28;1201;-31
2023/09/20 03:08:55;;;;;;;;;;;;;;;25.14;42.11;100876.78;5034535;28;1400;-32
2023/09/20 03:11:21;;;;;;;;;;;;;;;26.41;37.83;100876.47;5034722;28;1304;-34
2023/09/20 03:13:47;;;;;;;;;;;;;;;26.43;38.55;100870.91;5034171;28;1107;-31
2023/09/20 03:16:19;;;;;;;;;;;;;;;26.10;40.49;100872.69;5035480;28;1042;-36
2023/09/20 03:18:51;;;;;;;;;;;;;;;23.80;43.03;100871.84;5034389;28;1317;-35
2023/09/20 03:21:19;;;;;;;;;;;;;;;23.97;44.61;100870.94;5034451;28;1458;-32
2023/09/20 03:23:44;;;;;;;;;;;;;;;25.12;42.98;100864.50;5033982;28;1902;-28
2023/09/20 03:26:10;;;;;;;;;;;;;;;26.19;38.78;100865.44;5034215;28;2374;-31
2023/09/20 03:28:35;;;;;;;;;;;;;;;25.93;40.26;100869.19;5034370;28;1158;-35
2023/09/20 03:31:10;;;;;;;;;;;;;;;26.92;37.04;100864.41;5029403;28;1268;-32
2023/09/20 03:33:36;;;;;;;;;;;;;;;24.17;42.22;100873.41;5036117;28;1143;-33
2023/09/20 03:36:12;;;;;;;;;;;;;;;23.37;47.96;100867.13;5040697;28;1221;-32
2023/09/20 03:38:39;;;;;;;;;;;;;;;25.24;42.00;100873.91;5040948;28;1166;-33
2023/09/20 03:41:06;;;;;;;;;;;;;;;25.74;42.04;100873.94;5040958;28;1221;-30
2023/09/20 03:43:32;;;;;;;;;;;;;;;26.68;39.88;100870.78;5040717;28;1975;-32
2023/09/20 03:45:58;;;;;;;;;;;;;;;23.75;45.24;100796.25;5042413;28;1023;-31
2023/09/20 03:48:24;;;;;;;;;;;;;;;23.35;50.73;100869.97;5041006;28;1211;-37
2023/09/20 03:50:49;;;;;;;;;;;;;;;24.99;44.33;100873.06;5041121;28;1086;-37
2023/09/20 03:53:15;;;;;;;;;;;;;;;25.61;42.48;100876.31;5040651;28;1356;-34
2023/09/20 03:55:41;;;;;;;;;;;;;;;24.91;44.06;100876.56;5040582;28;1572;-27
2023/09/20 03:58:06;;;;;;;;;;;;;;;25.06;41.40;100872.22;5040963;28;1763;-36
2023/09/20 04:02:14;;;;;;;;;;;;;;;25.74;40.96;100878.50;5093516;28;1385;-34
2023/09/20 04:04:40;;;;;;;;;;;;;;;25.01;44.13;100879.97;5077856;28;1190;-29
2023/09/20 04:07:06;;;;;;;;;;;;;;;25.43;42.01;100872.75;5091249;28;1130;-32
2023/09/20 04:09:32;;;;;;;;;;;;;;;25.17;42.77;100873.75;5092687;28;1080;-35
2023/09/20 04:11:59;;;;;;;;;;;;;;;25.28;43.72;100882.50;5092655;28;986;-30
2023/09/20 04:14:25;;;;;;;;;;;;;;;25.39;42.44;100882.19;5086260;28;1107;-34
2023/09/20 04:16:53;;;;;;;;;;;;;;;25.13;43.51;100879.63;5082953;28;1043;-32
2023/09/20 04:19:21;;;;;;;;;;;;;;;24.00;48.17;100877.84;5078036;28;1160;-32
2023/09/20 04:21:47;;;;;;;;;;;;;;;25.27;42.66;100881.69;5079327;28;1905;-29
2023/09/20 04:24:13;;;;;;;;;;;;;;;25.01;44.07;100871.88;5073027;28;1112;-35
2023/09/20 04:26:38;;;;;;;;;;;;;;;24.85;43.79;100866.44;5057416;28;2525;-36
2023/09/20 04:29:04;;;;;;;;;;;;;;;24.84;43.51;100870.97;5062550;28;1344;-32
2023/09/20 04:31:32;;;;;;;;;;;;;;;23.99;46.92;100864.56;5063776;28;1294;-36
2023/09/20 04:33:57;;;;;;;;;;;;;;;24.09;45.11;100865.28;5051473;28;1134;-36
2023/09/20 04:36:23;;;;;;;;;;;;;;;24.20;45.61;100870.44;5064784;28;1313;-32
2023/09/20 04:38:50;;;;;;;;;;;;;;;23.88;46.57;100869.19;5083265;28;1117;-31
2023/09/20 04:41:17;;;;;;;;;;;;;;;24.02;45.41;100870.47;5057081;28;1902;-31
2023/09/20 04:43:42;;;;;;;;;;;;;;;24.09;45.63;100874.19;5051560;28;1308;-30
2023/09/20 04:46:08;;;;;;;;;;;;;;;24.53;44.54;100876.94;5052048;28;1039;-32
2023/09/20 04:48:33;;;;;;;;;;;;;;;24.45;44.86;100872.38;5051546;28;1325;-35
2023/09/20 04:51:01;;;;;;;;;;;;;;;24.21;46.06;100874.78;5068953;28;1378;-32
2023/09/20 04:53:26;;;;;;;;;;;;;;;25.32;42.92;100878.50;5051150;28;1114;-32
2023/09/20 04:55:52;;;;;;;;;;;;;;;25.10;43.93;100874.59;5081368;28;1112;-30
2023/09/20 04:58:18;;;;;;;;;;;;;;;25.56;42.02;100874.09;5073719;28;1803;-33
2023/09/20 05:00:44;;;;;;;;;;;;;;;23.55;45.45;100877.03;5107097;28;1898;-31
2023/09/20 05:03:15;;;;;;;;;;;;;;;24.11;46.76;100874.03;5112723;28;1140;-30
2023/09/20 05:05:43;;;;;;;;;;;;;;;24.90;45.87;100877.56;5114557;28;1365;-31
2023/09/20 05:08:09;;;;;;;;;;;;;;;25.55;42.53;100884.03;5107263;28;1153;-30
2023/09/20 05:10:34;;;;;;;;;;;;;;;24.92;44.88;100875.59;5104745;28;1059;-31
2023/09/20 05:13:01;;;;;;;;;;;;;;;25.77;41.61;100884.41;5099432;28;1188;-33
2023/09/20 05:15:26;;;;;;;;;;;;;;;25.05;44.33;100880.47;5068348;28;1355;-30
2023/09/20 05:17:52;;;;;;;;;;;;;;;24.58;45.93;100885.38;5091548;28;987;-33
2023/09/20 05:20:18;;;;;;;;;;;;;;;23.38;47.45;100887.59;5093179;28;1917;-31
2023/09/20 05:22:44;;;;;;;;;;;;;;;24.45;45.81;100889.38;5098629;28;1190;-31
2023/09/20 05:25:09;;;;;;;;;;;;;;;24.18;47.89;100877.81;5107999;28;1061;-30
2023/09/20 05:27:35;;;;;;;;;;;;;;;25.62;42.37;100886.91;5080320;28;1998;-32
2023/09/20 05:30:01;;;;;;;;;;;;;;;25.34;43.67;100889.09;5110665;28;1079;-30
2023/09/20 05:32:26;;;;;;;;;;;;;;;25.72;43.47;100899.38;5080804;28;1315;-32
2023/09/20 05:34:52;;;;;;;;;;;;;;;25.76;41.74;100898.88;5098291;28;1097;-31
2023/09/20 05:37:18;;;;;;;;;;;;;;;25.03;44.31;100899.47;5114059;28;1037;-32
2023/09/20 05:39:47;;;;;;;;;;;;;;;25.46;42.73;100909.28;5098120;28;1091;-30
2023/09/20 05:42:13;;;;;;;;;;;;;;;25.79;42.02;100900.38;5106017;28;1905;-31
2023/09/20 05:44:40;;;;;;;;;;;;;;;26.02;40.92;100903.22;5077687;28;1186;-33
2023/09/20 05:47:08;;;;;;;;;;;;;;;25.98;41.85;100904.56;5080072;28;1043;-28
2023/09/20 05:49:34;;;;;;;;;;;;;;;26.09;41.39;100903.34;5081989;28;1226;-30
2023/09/20 05:52:00;;;;;;;;;;;;;;;25.45;41.60;100816.03;5077961;28;1222;-32
2023/09/20 05:54:25;;;;;;;;;;;;;;;25.82;41.91;100912.66;5079223;28;1209;-32
2023/09/20 05:56:51;;;;;;;;;;;;;;;26.12;41.42;100915.66;5078829;28;1759;-35
2023/09/20 05:59:17;;;;;;;;;;;;;;;26.38;40.74;100914.59;5079957;28;1234;-32
2023/09/20 06:01:42;;;;;;;;;;;;;;;26.58;40.48;100915.03;5108327;28;1910;-32
2023/09/20 06:04:09;;;;;;;;;;;;;;;26.41;41.15;100907.00;5095178;28;1113;-37
2023/09/20 06:06:36;;;;;;;;;;;;;;;26.60;39.85;100909.44;5092426;28;1064;-35
2023/09/20 06:09:01;;;;;;;;;;;;;;;26.43;40.64;100908.66;5107135;28;1079;-33
2023/09/20 06:11:26;;;;;;;;;;;;;;;26.00;42.08;100920.56;5094894;28;1014;-35
2023/09/20 06:13:52;;;;;;;;;;;;;;;26.35;41.01;100910.41;5071631;28;1102;-30
2023/09/20 06:16:17;;;;;;;;;;;;;;;26.59;40.32;100919.38;5110005;28;919;-30
2023/09/20 06:18:44;;;;;;;;;;;;;;;26.67;40.54;100915.84;5082077;28;1331;-34
2023/09/20 06:21:10;;;;;;;;;;;;;;;26.37;40.92;100915.63;5093641;28;1906;-32
2023/09/20 06:23:35;;;;;;;;;;;;;;;26.81;39.89;100919.63;5083995;28;1050;-34
2023/09/20 06:26:04;;;;;;;;;;;;;;;27.31;39.10;100921.22;5101827;28;1027;-34
2023/09/20 06:28:31;;;;;;;;;;;;;;;27.59;37.97;100934.16;5097192;28;1118;-34
2023/09/20 06:30:57;;;;;;;;;;;;;;;27.65;37.80;100921.78;5116065;28;998;-35
2023/09/20 06:33:23;;;;;;;;;;;;;;;27.69;38.23;100932.09;5096708;28;1113;-36
2023/09/20 06:35:50;;;;;;;;;;;;;;;27.63;38.52;100932.78;5094448;28;1007;-34
2023/09/20 06:38:15;;;;;;;;;;;;;;;27.65;38.42;100938.00;5100397;28;1038;-36
2023/09/20 06:40:41;;;;;;;;;;;;;;;27.82;38.14;100946.84;5096815;28;1917;-36
2023/09/20 06:43:11;;;;;;;;;;;;;;;27.81;38.12;100939.75;5106958;28;1018;-36
2023/09/20 06:45:37;;;;;;;;;;;;;;;27.92;37.55;100943.88;5107702;28;1129;-36
2023/09/20 06:48:03;;;;;;;;;;;;;;;27.86;38.12;100946.28;5080792;28;1219;-36
2023/09/20 06:50:29;;;;;;;;;;;;;;;27.95;37.96;100947.06;5113085;28;1132;-33
2023/09/20 06:52:55;;;;;;;;;;;;;;;27.91;38.32;100945.72;5116869;28;994;-34
2023/09/20 06:55:20;;;;;;;;;;;;;;;27.91;37.92;100948.44;5116901;28;1121;-32
2023/09/20 06:57:47;;;;;;;;;;;;;;;27.96;38.02;100950.59;5110119;28;2469;-33
2023/09/20 07:00:31;;;;;;;;;;;;;;;28.02;37.87;100944.44;5091365;28;1941;-35
2023/09/20 07:02:56;;;;;;;;;;;;;;;28.19;37.71;100947.84;5106243;28;1248;-37
2023/09/20 07:05:24;;;;;;;;;;;;;;;28.24;37.50;100952.69;5094950;28;1162;-36
2023/09/20 07:07:50;;;;;;;;;;;;;;;28.34;37.51;100958.66;5082217;28;1136;-33
2023/09/20 07:10:16;;;;;;;;;;;;;;;28.43;36.79;100963.97;5113684;28;1090;-33
2023/09/20 07:12:42;;;;;;;;;;;;;;;28.47;37.02;100955.31;5105653;28;1002;-35
2023/09/20 07:15:08;;;;;;;;;;;;;;;28.50;36.53;100959.50;5108523;28;1257;-35
2023/09/20 07:17:35;;;;;;;;;;;;;;;28.42;36.97;100962.31;5107457;28;1097;-33
2023/09/20 07:20:18;;;;;;;;;;;;;;;28.50;36.63;100966.78;5089765;28;1976;-34
2023/09/20 07:22:47;;;;;;;;;;;;;;;28.54;36.72;100962.69;5094168;28;1122;-30
2023/09/20 07:25:17;;;;;;;;;;;;;;;28.50;36.76;100955.97;5092871;28;1018;-36
2023/09/20 07:27:43;;;;;;;;;;;;;;;28.55;36.50;100958.94;5090690;28;2336;-38
2023/09/20 07:30:14;;;;;;;;;;;;;;;28.48;36.57;100956.16;5115403;28;1064;-33
2023/09/20 07:32:40;;;;;;;;;;;;;;;28.55;36.53;100953.53;5100737;28;1122;-35
2023/09/20 07:35:19;;;;;;;;;;;;;;;28.71;36.42;100961.44;5097583;28;1244;-33
2023/09/20 07:37:48;;;;;;;;;;;;;;;28.57;36.41;100952.34;5104687;28;1122;-36
2023/09/20 07:40:13;;;;;;;;;;;;;;;28.54;36.06;100954.56;5091327;28;1995;-31
2023/09/20 07:42:40;;;;;;;;;;;;;;;28.63;36.33;100950.72;5076236;28;1325;-35
2023/09/20 07:45:12;;;;;;;;;;;;;;;28.57;35.92;100957.75;5078449;28;1194;-30
2023/09/20 07:47:39;;;;;;;;;;;;;;;28.64;36.06;100968.66;5076789;28;1155;-32
2023/09/20 07:50:06;;;;;;;;;;;;;;;28.66;36.20;100969.28;5077973;28;1117;-34
2023/09/20 07:52:33;;;;;;;;;;;;;;;28.56;36.15;100971.47;5088840;28;1205;-33
2023/09/20 07:55:01;;;;;;;;;;;;;;;28.66;35.88;100972.00;5115623;28;1033;-37
2023/09/20 07:57:28;;;;;;;;;;;;;;;28.88;35.36;100974.78;5100868;28;2411;-36
2023/09/20 07:59:53;;;;;;;;;;;;;;;28.81;35.55;100971.16;5077703;28;1010;-33
2023/09/20 08:02:19;;;;;;;;;;;;;;;28.88;35.61;100972.06;5109941;28;1922;-35
2023/09/20 08:04:44;;;;;;;;;;;;;;;28.88;35.33;100972.06;5115966;28;1072;-32
2023/09/20 08:07:10;;;;;;;;;;;;;;;28.84;35.20;100970.78;5114313;28;1065;-33
2023/09/20 08:09:36;;;;;;;;;;;;;;;29.04;35.20;100972.91;5103798;28;1006;-31
2023/09/20 08:12:01;;;;;;;;;;;;;;;29.07;34.97;100969.81;5102291;28;1217;-32
2023/09/20 08:14:27;;;;;;;;;;;;;;;28.98;35.63;100979.91;5095793;28;1197;-32
2023/09/20 08:19:37;;;;;;;;;;;;;;;28.82;35.88;100979.09;5077187;28;1136;-34
2023/09/20 08:22:03;;;;;;;;;;;;;;;29.03;35.31;100968.53;5106198;28;1918;-34
2023/09/20 09:00:21;;;;;;;;;;;;;;;29.16;34.87;100965.13;5089162;28;1910;-35
2023/09/20 09:02:58;;;;;;;;;;;;;;;29.19;34.94;100971.00;5096059;28;889;-33
2023/09/20 09:05:26;;;;;;;;;;;;;;;29.09;35.24;100968.59;5100365;28;1506;-36
2023/09/20 09:07:51;;;;;;;;;;;;;;;29.32;34.61;100970.31;5118839;28;1018;-34
2023/09/20 09:10:17;;;;;;;;;;;;;;;29.24;34.32;100962.28;5090416;28;1201;-34
2023/09/20 09:12:42;;;;;;;;;;;;;;;29.38;34.41;100965.97;5094483;28;1077;-33
2023/09/20 09:15:08;;;;;;;;;;;;;;;29.31;34.36;100959.66;5088265;28;1050;-35
2023/09/20 09:17:40;;;;;;;;;;;;;;;29.08;35.13;100957.94;5079431;28;1089;-35
2023/09/20 09:20:09;;;;;;;;;;;;;;;29.18;34.84;100958.47;5102500;28;2223;-34
2023/09/20 09:22:34;;;;;;;;;;;;;;;28.46;35.45;100858.91;5111967;28;1106;-33
2023/09/20 09:25:00;;;;;;;;;;;;;;;29.52;34.30;100961.53;5098014;28;1252;-35
2023/09/20 09:27:25;;;;;;;;;;;;;;;29.52;34.56;100956.09;5082273;28;2197;-32
2023/09/20 09:29:51;;;;;;;;;;;;;;;29.80;33.99;100952.59;5089074;28;1039;-33
2023/09/20 09:32:17;;;;;;;;;;;;;;;29.67;33.38;100952.50;5080325;28;1300;-33
2023/09/20 09:34:43;;;;;;;;;;;;;;;29.84;33.64;100947.63;5088616;28;1376;-31
2023/09/20 09:37:11;;;;;;;;;;;;;;;29.72;33.65;100941.06;5092508;28;1280;-32
2023/09/20 09:39:39;;;;;;;;;;;;;;;29.77;33.58;100938.59;5108515;28;1006;-31
2023/09/20 09:42:06;;;;;;;;;;;;;;;29.92;33.67;100947.50;5080909;28;1914;-36
2023/09/20 09:44:51;;;;;;;;;;;;;;;29.88;33.05;100940.75;5062779;28;1297;-33
2023/09/20 09:47:17;;;;;;;;;;;;;;;29.87;33.53;100943.69;5079415;28;1178;-30
2023/09/20 09:49:42;;;;;;;;;;;;;;;29.90;33.01;100956.84;5077711;28;1075;-35
2023/09/20 09:52:08;;;;;;;;;;;;;;;30.00;33.38;100957.34;5081985;28;1285;-36
2023/09/20 09:54:35;;;;;;;;;;;;;;;30.23;32.94;100953.53;5062664;28;1361;-32
2023/09/20 09:57:01;;;;;;;;;;;;;;;30.30;33.12;100959.84;5061660;28;2300;-32
2023/09/20 09:59:26;;;;;;;;;;;;;;;30.04;33.72;100955.91;5092209;28;1145;-31
2023/09/20 10:01:55;;;;;;;;;;;;;;;30.37;32.77;100951.75;5083731;28;1910;-33
2023/09/20 10:04:20;;;;;;;;;;;;;;;30.29;32.84;100960.91;5062275;28;1055;-36
2023/09/20 10:06:50;;;;;;;;;;;;;;;30.31;33.24;100953.38;5083724;28;1036;-35
2023/09/20 10:09:17;;;;;;;;;;;;;;;30.28;33.23;100956.50;5081273;28;1098;-37
2023/09/20 10:11:43;;;;;;;;;;;;;;;30.38;33.39;100944.47;5083008;28;1022;-37
2023/09/20 10:14:10;;;;;;;;;;;;;;;30.29;33.40;100949.22;5064831;28;1085;-32
2023/09/20 10:16:38;;;;;;;;;;;;;;;30.27;33.58;100946.69;5090799;28;1285;-34
2023/09/20 10:19:05;;;;;;;;;;;;;;;30.19;33.24;100944.13;5088479;28;1133;-33
2023/09/20 10:21:30;;;;;;;;;;;;;;;30.11;33.93;100941.56;5092168;28;1918;-36
2023/09/20 10:23:58;;;;;;;;;;;;;;;30.13;34.12;100940.31;5088071;28;1133;-35
2023/09/20 10:26:23;;;;;;;;;;;;;;;29.97;34.00;100933.31;5077482;28;1891;-35
2023/09/20 10:28:51;;;;;;;;;;;;;;;30.04;33.77;100927.94;5079901;28;1159;-36
2023/09/20 10:31:17;;;;;;;;;;;;;;;29.90;34.43;100924.28;5078869;28;1175;-33
2023/09/20 10:33:55;;;;;;;;;;;;;;;29.93;34.51;100935.59;5081749;28;1269;-33
2023/09/20 10:36:23;;;;;;;;;;;;;;;29.81;34.59;100929.06;5084808;28;1368;-33
2023/09/20 10:38:48;;;;;;;;;;;;;;;29.79;34.20;100926.53;5078543;28;1225;-36
2023/09/20 10:41:14;;;;;;;;;;;;;;;29.66;34.48;100929.97;5077887;28;1906;-32
2023/09/20 10:43:41;;;;;;;;;;;;;;;29.73;34.80;100926.50;5082715;28;1269;-37
2023/09/20 10:46:18;;;;;;;;;;;;;;;29.40;35.39;100920.56;5079393;28;1273;-33
2023/09/20 10:48:48;;;;;;;;;;;;;;;29.67;35.06;100920.81;5077550;28;1215;-30
2023/09/20 10:51:34;;;;;;;;;;;;;;;29.76;34.74;100932.31;5077799;28;1142;-34
2023/09/20 10:54:02;;;;;;;;;;;;;;;29.77;34.82;100927.75;5085980;28;1292;-35
2023/09/20 10:56:44;;;;;;;;;;;;;;;29.65;34.54;100927.44;5089764;28;2312;-32
2023/09/20 10:59:18;;;;;;;;;;;;;;;29.63;34.78;100921.41;5082562;28;1128;-33
2023/09/20 11:01:50;;;;;;;;;;;;;;;29.48;35.00;100927.69;5076566;28;1906;-31
2023/09/20 11:04:17;;;;;;;;;;;;;;;29.44;35.01;100923.72;5089222;28;1007;-33
2023/09/20 11:06:47;;;;;;;;;;;;;;;29.38;35.28;100922.59;5102503;28;1169;-33
2023/09/20 11:09:15;;;;;;;;;;;;;;;29.51;35.36;100930.00;5076786;28;1305;-31
2023/09/20 11:11:41;;;;;;;;;;;;;;;29.60;34.65;100922.63;5092018;28;1109;-36
2023/09/20 11:14:07;;;;;;;;;;;;;;;29.46;35.37;100921.66;5096394;28;1445;-31
2023/09/20 11:16:32;;;;;;;;;;;;;;;29.53;35.51;100916.28;5094308;28;1105;-32
2023/09/20 11:18:58;;;;;;;;;;;;;;;29.41;34.93;100922.22;5076285;28;1210;-35
2023/09/20 11:21:24;;;;;;;;;;;;;;;29.33;35.59;100915.06;5079642;28;1966;-31
2023/09/20 11:23:50;;;;;;;;;;;;;;;29.42;34.90;100912.22;5060260;28;1211;-31
2023/09/20 11:26:28;;;;;;;;;;;;;;;29.44;35.54;100911.00;5059229;28;2240;-34
2023/09/20 11:28:54;;;;;;;;;;;;;;;29.24;35.34;100920.81;5081681;28;1064;-35
2023/09/20 11:31:30;;;;;;;;;;;;;;;29.52;35.43;100915.44;5076615;28;1234;-33
2023/09/20 11:33:57;;;;;;;;;;;;;;;29.54;35.42;100916.09;5079287;28;1258;-33
2023/09/20 11:36:23;;;;;;;;;;;;;;;29.36;34.97;100918.44;5079489;28;1376;-31
2023/09/20 11:38:48;;;;;;;;;;;;;;;29.31;35.49;100911.69;5066479;28;1031;-35
2023/09/20 11:41:14;;;;;;;;;;;;;;;29.22;35.74;100912.88;5080291;28;1985;-31
2023/09/20 11:43:41;;;;;;;;;;;;;;;29.25;35.65;100911.63;5088679;28;1249;-34
2023/09/20 11:46:12;;;;;;;;;;;;;;;29.07;36.03;100904.81;5096078;28;1280;-33
2023/09/20 11:48:38;;;;;;;;;;;;;;;29.37;35.41;100896.56;5079816;28;1173;-30
2023/09/20 11:51:04;;;;;;;;;;;;;;;29.37;35.44;100895.72;5084950;28;1234;-30
2023/09/20 11:53:30;;;;;;;;;;;;;;;29.43;35.66;100897.63;5103048;28;1268;-33
2023/09/20 11:55:55;;;;;;;;;;;;;;;29.33;35.72;100892.53;5085115;28;1367;-32
2023/09/20 11:58:21;;;;;;;;;;;;;;;29.55;35.50;100892.53;5079541;28;2600;-32
2023/09/20 12:00:47;;;;;;;;;;;;;;;29.47;35.45;100898.94;5079699;28;1974;-33
2023/09/20 12:03:13;;;;;;;;;;;;;;;29.23;36.07;100887.44;5077782;28;1102;-33
2023/09/20 12:05:39;;;;;;;;;;;;;;;29.34;36.04;100884.22;5094127;28;1233;-33
2023/09/20 12:08:06;;;;;;;;;;;;;;;29.25;36.14;100890.81;5095433;28;1390;-31
2023/09/20 12:10:31;;;;;;;;;;;;;;;29.29;36.00;100888.56;5091418;28;1377;-31
2023/09/20 12:12:57;;;;;;;;;;;;;;;29.31;35.87;100889.22;5085049;28;1371;-33
2023/09/20 12:15:23;;;;;;;;;;;;;;;29.50;34.76;100890.41;5082018;28;1128;-32
2023/09/20 12:17:51;;;;;;;;;;;;;;;29.57;34.49;100885.03;5104904;28;832;-35
2023/09/20 12:20:17;;;;;;;;;;;;;;;29.62;34.78;100882.59;5101817;28;1918;-32
2023/09/20 12:22:43;;;;;;;;;;;;;;;29.54;35.15;100889.00;5102206;28;1193;-32
2023/09/20 12:25:11;;;;;;;;;;;;;;;29.39;34.96;100875.53;5095697;28;1078;-32
2023/09/20 12:27:36;;;;;;;;;;;;;;;29.58;34.83;100878.56;5080577;28;1836;-35
2023/09/20 12:30:02;;;;;;;;;;;;;;;29.62;34.71;100876.34;5082448;28;958;-33
2023/09/20 12:32:27;;;;;;;;;;;;;;;29.37;34.97;100874.88;5094407;28;1406;-32
2023/09/20 12:34:54;;;;;;;;;;;;;;;29.37;35.50;100879.44;5073336;28;1445;-35
2023/09/20 12:37:21;;;;;;;;;;;;;;;29.38;35.96;100879.25;5086264;28;1058;-32
2023/09/20 12:39:47;;;;;;;;;;;;;;;29.45;35.32;100876.59;5085410;28;1166;-30
2023/09/20 12:42:13;;;;;;;;;;;;;;;29.44;35.55;100873.06;5102588;28;1976;-35
2023/09/20 12:44:38;;;;;;;;;;;;;;;29.57;35.25;100876.91;5080480;28;1138;-34
2023/09/20 12:47:04;;;;;;;;;;;;;;;29.46;35.57;100873.69;5091078;28;1137;-33
2023/09/20 12:49:29;;;;;;;;;;;;;;;29.42;35.77;100867.00;5082761;28;1125;-30
2023/09/20 12:51:55;;;;;;;;;;;;;;;29.34;35.87;100867.97;5088280;28;1363;-32
2023/09/20 12:54:20;;;;;;;;;;;;;;;29.52;35.46;100877.50;5087972;28;1180;-33
2023/09/20 12:56:46;;;;;;;;;;;;;;;29.58;35.04;100857.72;5095240;28;1851;-32
2023/09/20 12:59:13;;;;;;;;;;;;;;;29.54;35.39;100859.19;5095019;28;1268;-31
2023/09/20 13:01:38;;;;;;;;;;;;;;;29.45;36.07;100853.06;5080648;28;1906;-30
2023/09/20 13:04:04;;;;;;;;;;;;;;;29.41;35.71;100851.75;5093383;28;1400;-32
2023/09/20 13:06:32;;;;;;;;;;;;;;;29.38;36.12;100848.63;5075134;28;1177;-35
2023/09/20 13:08:58;;;;;;;;;;;;;;;29.46;35.75;100853.91;5096548;28;1177;-32
2023/09/20 13:11:23;;;;;;;;;;;;;;;29.54;35.09;100848.34;5090468;28;1099;-36
2023/09/20 13:13:49;;;;;;;;;;;;;;;29.49;35.87;100844.53;5091119;28;1089;-35
2023/09/20 13:16:16;;;;;;;;;;;;;;;29.37;35.98;100847.78;5117751;28;1160;-33
2023/09/20 13:18:43;;;;;;;;;;;;;;;29.33;36.06;100836.50;5093782;28;1196;-31
2023/09/20 13:21:09;;;;;;;;;;;;;;;29.31;36.11;100837.72;5100948;28;1945;-30
2023/09/20 13:23:34;;;;;;;;;;;;;;;29.30;36.22;100839.59;5093352;28;1129;-33
2023/09/20 13:26:00;;;;;;;;;;;;;;;29.34;35.70;100840.88;5096845;28;1347;-32